sensor_id;sensor_type;location;lat;lon;timestamp;temperature;humidity
83828;DHT22;73850;48.870;12.562;2023-11-21T00:02:13;7.30;88.70
83828;DHT22;73850;48.870;12.562;2023-11-21T00:04:39;7.30;88.90
83828;DHT22;73850;48.870;12.562;2023-11-21T00:07:05;7.30;89.00
83828;DHT22;73850;48.870;12.562;2023-11-21T00:09:32;7.30;89.20
83828;DHT22;73850;48.870;12.562;2023-11-21T00:11:57;7.30;89.70
83828;DHT22;73850;48.870;12.562;2023-11-21T00:14:25;7.30;90.40
83828;DHT22;73850;48.870;12.562;2023-11-21T00:16:50;7.30;91.00
83828;DHT22;73850;48.870;12.562;2023-11-21T00:19:16;7.30;91.40
83828;DHT22;73850;48.870;12.562;2023-11-21T00:21:42;7.30;91.50
83828;DHT22;73850;48.870;12.562;2023-11-21T00:24:12;7.30;91.60
83828;DHT22;73850;48.870;12.562;2023-11-21T00:26:39;7.30;92.00
83828;DHT22;73850;48.870;12.562;2023-11-21T00:29:05;7.30;92.40
83828;DHT22;73850;48.870;12.562;2023-11-21T00:31:34;7.30;93.50
83828;DHT22;73850;48.870;12.562;2023-11-21T00:34:03;7.30;93.30
83828;DHT22;73850;48.870;12.562;2023-11-21T00:36:31;7.30;92.70
83828;DHT22;73850;48.870;12.562;2023-11-21T00:38:57;7.30;92.60
83828;DHT22;73850;48.870;12.562;2023-11-21T00:41:23;7.30;92.30
83828;DHT22;73850;48.870;12.562;2023-11-21T00:43:49;7.30;92.20
83828;DHT22;73850;48.870;12.562;2023-11-21T00:46:14;7.30;92.20
83828;DHT22;73850;48.870;12.562;2023-11-21T00:48:40;7.30;92.10
83828;DHT22;73850;48.870;12.562;2023-11-21T00:51:06;7.30;92.00
83828;DHT22;73850;48.870;12.562;2023-11-21T00:53:32;7.30;91.70
83828;DHT22;73850;48.870;12.562;2023-11-21T00:55:57;7.30;91.80
83828;DHT22;73850;48.870;12.562;2023-11-21T00:58:24;7.30;92.10
83828;DHT22;73850;48.870;12.562;2023-11-21T01:00:50;7.30;92.30
83828;DHT22;73850;48.870;12.562;2023-11-21T01:03:16;7.30;92.50
83828;DHT22;73850;48.870;12.562;2023-11-21T01:05:42;7.30;92.40
83828;DHT22;73850;48.870;12.562;2023-11-21T01:08:07;7.30;92.50
83828;DHT22;73850;48.870;12.562;2023-11-21T01:10:33;7.20;92.60
83828;DHT22;73850;48.870;12.562;2023-11-21T01:12:59;7.20;92.80
83828;DHT22;73850;48.870;12.562;2023-11-21T01:15:25;7.30;92.90
83828;DHT22;73850;48.870;12.562;2023-11-21T01:17:51;7.30;93.20
83828;DHT22;73850;48.870;12.562;2023-11-21T01:20:17;7.30;93.10
83828;DHT22;73850;48.870;12.562;2023-11-21T01:22:43;7.20;92.90
83828;DHT22;73850;48.870;12.562;2023-11-21T01:25:09;7.30;92.60
83828;DHT22;73850;48.870;12.562;2023-11-21T01:27:36;7.20;92.40
83828;DHT22;73850;48.870;12.562;2023-11-21T01:30:03;7.20;92.30
83828;DHT22;73850;48.870;12.562;2023-11-21T01:32:29;7.20;92.30
83828;DHT22;73850;48.870;12.562;2023-11-21T01:34:54;7.20;92.20
83828;DHT22;73850;48.870;12.562;2023-11-21T01:37:23;7.20;92.50
83828;DHT22;73850;48.870;12.562;2023-11-21T01:39:49;7.20;92.50
83828;DHT22;73850;48.870;12.562;2023-11-21T01:42:15;7.20;92.60
83828;DHT22;73850;48.870;12.562;2023-11-21T01:44:40;7.10;92.60
83828;DHT22;73850;48.870;12.562;2023-11-21T01:47:07;7.10;92.60
83828;DHT22;73850;48.870;12.562;2023-11-21T01:49:34;7.20;92.60
83828;DHT22;73850;48.870;12.562;2023-11-21T01:52:00;7.10;92.50
83828;DHT22;73850;48.870;12.562;2023-11-21T01:54:26;7.10;92.50
83828;DHT22;73850;48.870;12.562;2023-11-21T01:56:52;7.10;92.60
83828;DHT22;73850;48.870;12.562;2023-11-21T01:59:21;7.20;92.50
83828;DHT22;73850;48.870;12.562;2023-11-21T02:01:48;7.10;92.40
83828;DHT22;73850;48.870;12.562;2023-11-21T02:04:14;7.10;92.50
83828;DHT22;73850;48.870;12.562;2023-11-21T02:06:39;7.10;92.40
83828;DHT22;73850;48.870;12.562;2023-11-21T02:09:05;7.10;92.40
83828;DHT22;73850;48.870;12.562;2023-11-21T02:11:31;7.10;92.30
83828;DHT22;73850;48.870;12.562;2023-11-21T02:13:59;7.10;92.60
83828;DHT22;73850;48.870;12.562;2023-11-21T02:16:26;7.10;92.80
83828;DHT22;73850;48.870;12.562;2023-11-21T02:18:52;7.10;92.80
83828;DHT22;73850;48.870;12.562;2023-11-21T02:21:18;7.10;93.00
83828;DHT22;73850;48.870;12.562;2023-11-21T02:23:47;7.10;93.10
83828;DHT22;73850;48.870;12.562;2023-11-21T02:26:13;7.10;92.80
83828;DHT22;73850;48.870;12.562;2023-11-21T02:28:39;7.10;93.00
83828;DHT22;73850;48.870;12.562;2023-11-21T02:31:06;7.10;93.20
83828;DHT22;73850;48.870;12.562;2023-11-21T02:33:33;7.10;93.30
83828;DHT22;73850;48.870;12.562;2023-11-21T02:36:02;7.10;93.10
83828;DHT22;73850;48.870;12.562;2023-11-21T02:38:28;7.10;93.10
83828;DHT22;73850;48.870;12.562;2023-11-21T02:40:54;7.10;93.00
83828;DHT22;73850;48.870;12.562;2023-11-21T02:43:19;7.10;93.30
83828;DHT22;73850;48.870;12.562;2023-11-21T02:45:45;7.10;93.20
83828;DHT22;73850;48.870;12.562;2023-11-21T02:48:12;7.10;93.60
83828;DHT22;73850;48.870;12.562;2023-11-21T02:50:37;7.10;93.20
83828;DHT22;73850;48.870;12.562;2023-11-21T02:53:03;7.10;93.40
83828;DHT22;73850;48.870;12.562;2023-11-21T02:55:31;7.10;93.40
83828;DHT22;73850;48.870;12.562;2023-11-21T02:58:00;7.10;93.20
83828;DHT22;73850;48.870;12.562;2023-11-21T03:00:26;7.10;92.70
83828;DHT22;73850;48.870;12.562;2023-11-21T03:02:54;7.10;92.80
83828;DHT22;73850;48.870;12.562;2023-11-21T03:05:20;7.10;92.90
83828;DHT22;73850;48.870;12.562;2023-11-21T03:07:47;7.10;93.00
83828;DHT22;73850;48.870;12.562;2023-11-21T03:10:12;7.10;93.00
83828;DHT22;73850;48.870;12.562;2023-11-21T03:12:39;7.10;93.00
83828;DHT22;73850;48.870;12.562;2023-11-21T03:15:08;7.10;93.00
83828;DHT22;73850;48.870;12.562;2023-11-21T03:17:34;7.10;93.20
83828;DHT22;73850;48.870;12.562;2023-11-21T03:20:00;7.10;93.50
83828;DHT22;73850;48.870;12.562;2023-11-21T03:22:26;7.10;93.70
83828;DHT22;73850;48.870;12.562;2023-11-21T03:24:52;7.10;93.70
83828;DHT22;73850;48.870;12.562;2023-11-21T03:27:20;7.10;93.80
83828;DHT22;73850;48.870;12.562;2023-11-21T03:29:48;7.10;93.80
83828;DHT22;73850;48.870;12.562;2023-11-21T03:32:15;7.10;93.90
83828;DHT22;73850;48.870;12.562;2023-11-21T03:34:58;7.10;93.90
83828;DHT22;73850;48.870;12.562;2023-11-21T03:37:24;7.10;94.00
83828;DHT22;73850;48.870;12.562;2023-11-21T03:39:50;7.10;94.10
83828;DHT22;73850;48.870;12.562;2023-11-21T03:42:16;7.10;94.20
83828;DHT22;73850;48.870;12.562;2023-11-21T03:44:42;7.10;94.30
83828;DHT22;73850;48.870;12.562;2023-11-21T03:47:08;7.10;94.40
83828;DHT22;73850;48.870;12.562;2023-11-21T03:49:33;7.00;94.50
83828;DHT22;73850;48.870;12.562;2023-11-21T03:51:59;7.10;94.70
83828;DHT22;73850;48.870;12.562;2023-11-21T03:54:24;7.00;94.60
83828;DHT22;73850;48.870;12.562;2023-11-21T03:56:50;7.00;94.40
83828;DHT22;73850;48.870;12.562;2023-11-21T03:59:16;7.00;94.50
83828;DHT22;73850;48.870;12.562;2023-11-21T04:01:41;7.00;94.40
83828;DHT22;73850;48.870;12.562;2023-11-21T04:04:07;7.00;94.50
83828;DHT22;73850;48.870;12.562;2023-11-21T04:06:32;7.10;94.10
83828;DHT22;73850;48.870;12.562;2023-11-21T04:08:58;7.10;94.00
83828;DHT22;73850;48.870;12.562;2023-11-21T04:11:24;7.10;93.60
83828;DHT22;73850;48.870;12.562;2023-11-21T04:13:50;7.00;93.50
83828;DHT22;73850;48.870;12.562;2023-11-21T04:16:15;7.10;93.50
83828;DHT22;73850;48.870;12.562;2023-11-21T04:18:41;7.10;93.10
83828;DHT22;73850;48.870;12.562;2023-11-21T04:21:07;7.10;92.80
83828;DHT22;73850;48.870;12.562;2023-11-21T04:23:33;7.00;92.90
83828;DHT22;73850;48.870;12.562;2023-11-21T04:26:00;7.00;93.10
83828;DHT22;73850;48.870;12.562;2023-11-21T04:28:27;7.00;93.30
83828;DHT22;73850;48.870;12.562;2023-11-21T04:30:53;6.90;93.50
83828;DHT22;73850;48.870;12.562;2023-11-21T04:33:19;6.90;93.90
83828;DHT22;73850;48.870;12.562;2023-11-21T04:35:44;7.00;94.00
83828;DHT22;73850;48.870;12.562;2023-11-21T04:38:10;7.00;93.90
83828;DHT22;73850;48.870;12.562;2023-11-21T04:40:36;7.00;93.70
83828;DHT22;73850;48.870;12.562;2023-11-21T04:43:01;7.00;93.70
83828;DHT22;73850;48.870;12.562;2023-11-21T04:45:27;7.00;93.60
83828;DHT22;73850;48.870;12.562;2023-11-21T04:47:53;7.00;93.40
83828;DHT22;73850;48.870;12.562;2023-11-21T04:50:18;7.00;93.40
83828;DHT22;73850;48.870;12.562;2023-11-21T04:52:44;6.90;93.60
83828;DHT22;73850;48.870;12.562;2023-11-21T04:55:10;6.90;93.80
83828;DHT22;73850;48.870;12.562;2023-11-21T04:57:39;6.80;93.90
83828;DHT22;73850;48.870;12.562;2023-11-21T05:00:08;6.90;94.00
83828;DHT22;73850;48.870;12.562;2023-11-21T05:02:34;6.90;94.10
83828;DHT22;73850;48.870;12.562;2023-11-21T05:05:00;6.90;94.00
83828;DHT22;73850;48.870;12.562;2023-11-21T05:07:26;6.90;94.10
83828;DHT22;73850;48.870;12.562;2023-11-21T05:09:57;6.90;94.10
83828;DHT22;73850;48.870;12.562;2023-11-21T05:12:24;6.90;94.20
83828;DHT22;73850;48.870;12.562;2023-11-21T05:14:50;6.90;94.50
83828;DHT22;73850;48.870;12.562;2023-11-21T05:17:16;6.90;94.50
83828;DHT22;73850;48.870;12.562;2023-11-21T05:19:42;6.90;94.50
83828;DHT22;73850;48.870;12.562;2023-11-21T05:22:10;6.90;94.40
83828;DHT22;73850;48.870;12.562;2023-11-21T05:24:37;6.90;94.30
83828;DHT22;73850;48.870;12.562;2023-11-21T05:27:04;6.90;94.30
83828;DHT22;73850;48.870;12.562;2023-11-21T05:29:30;6.90;94.40
83828;DHT22;73850;48.870;12.562;2023-11-21T05:31:56;6.90;94.30
83828;DHT22;73850;48.870;12.562;2023-11-21T05:34:22;6.80;94.30
83828;DHT22;73850;48.870;12.562;2023-11-21T05:36:50;6.90;94.30
83828;DHT22;73850;48.870;12.562;2023-11-21T05:39:15;6.80;94.20
83828;DHT22;73850;48.870;12.562;2023-11-21T05:41:43;6.80;94.20
83828;DHT22;73850;48.870;12.562;2023-11-21T05:44:08;6.80;94.30
83828;DHT22;73850;48.870;12.562;2023-11-21T05:46:34;6.80;94.50
83828;DHT22;73850;48.870;12.562;2023-11-21T05:49:00;6.80;94.40
83828;DHT22;73850;48.870;12.562;2023-11-21T05:51:26;6.80;94.30
83828;DHT22;73850;48.870;12.562;2023-11-21T05:53:51;6.80;94.40
83828;DHT22;73850;48.870;12.562;2023-11-21T05:56:17;6.90;94.40
83828;DHT22;73850;48.870;12.562;2023-11-21T05:58:43;6.90;94.40
83828;DHT22;73850;48.870;12.562;2023-11-21T06:01:09;6.90;94.20
83828;DHT22;73850;48.870;12.562;2023-11-21T06:03:38;6.90;94.10
83828;DHT22;73850;48.870;12.562;2023-11-21T06:06:04;7.00;93.70
83828;DHT22;73850;48.870;12.562;2023-11-21T06:08:30;7.00;93.70
83828;DHT22;73850;48.870;12.562;2023-11-21T06:10:55;7.00;93.70
83828;DHT22;73850;48.870;12.562;2023-11-21T06:13:21;7.00;93.80
83828;DHT22;73850;48.870;12.562;2023-11-21T06:15:50;7.00;93.90
83828;DHT22;73850;48.870;12.562;2023-11-21T06:18:16;7.00;93.90
83828;DHT22;73850;48.870;12.562;2023-11-21T06:20:45;7.00;93.90
83828;DHT22;73850;48.870;12.562;2023-11-21T06:23:11;7.00;93.70
83828;DHT22;73850;48.870;12.562;2023-11-21T06:25:36;7.00;93.80
83828;DHT22;73850;48.870;12.562;2023-11-21T06:28:02;7.10;93.80
83828;DHT22;73850;48.870;12.562;2023-11-21T06:30:28;7.10;93.80
83828;DHT22;73850;48.870;12.562;2023-11-21T06:32:54;7.10;93.70
83828;DHT22;73850;48.870;12.562;2023-11-21T06:35:20;7.10;93.90
83828;DHT22;73850;48.870;12.562;2023-11-21T06:37:46;7.10;94.00
83828;DHT22;73850;48.870;12.562;2023-11-21T06:40:13;7.10;93.90
83828;DHT22;73850;48.870;12.562;2023-11-21T06:42:44;7.10;93.80
83828;DHT22;73850;48.870;12.562;2023-11-21T06:45:10;7.20;93.50
83828;DHT22;73850;48.870;12.562;2023-11-21T06:47:37;7.20;93.40
83828;DHT22;73850;48.870;12.562;2023-11-21T06:50:04;7.20;93.30
83828;DHT22;73850;48.870;12.562;2023-11-21T06:52:29;7.20;93.50
83828;DHT22;73850;48.870;12.562;2023-11-21T06:54:55;7.20;93.40
83828;DHT22;73850;48.870;12.562;2023-11-21T06:57:23;7.20;93.30
83828;DHT22;73850;48.870;12.562;2023-11-21T06:59:49;7.20;93.30
83828;DHT22;73850;48.870;12.562;2023-11-21T07:02:16;7.20;93.40
83828;DHT22;73850;48.870;12.562;2023-11-21T07:04:45;7.20;93.40
83828;DHT22;73850;48.870;12.562;2023-11-21T07:07:11;7.20;93.40
83828;DHT22;73850;48.870;12.562;2023-11-21T07:09:37;7.20;93.10
83828;DHT22;73850;48.870;12.562;2023-11-21T07:12:03;7.30;93.20
83828;DHT22;73850;48.870;12.562;2023-11-21T07:14:31;7.30;93.20
83828;DHT22;73850;48.870;12.562;2023-11-21T07:16:57;7.30;93.10
83828;DHT22;73850;48.870;12.562;2023-11-21T07:19:23;7.30;93.00
83828;DHT22;73850;48.870;12.562;2023-11-21T07:21:49;7.40;93.00
83828;DHT22;73850;48.870;12.562;2023-11-21T07:24:17;7.40;93.00
83828;DHT22;73850;48.870;12.562;2023-11-21T07:26:43;7.50;92.80
83828;DHT22;73850;48.870;12.562;2023-11-21T07:29:09;7.60;92.50
83828;DHT22;73850;48.870;12.562;2023-11-21T07:31:34;7.60;92.30
83828;DHT22;73850;48.870;12.562;2023-11-21T07:34:00;7.60;92.30
83828;DHT22;73850;48.870;12.562;2023-11-21T07:36:26;7.70;91.90
83828;DHT22;73850;48.870;12.562;2023-11-21T07:38:52;7.80;91.50
83828;DHT22;73850;48.870;12.562;2023-11-21T07:41:18;7.80;91.40
83828;DHT22;73850;48.870;12.562;2023-11-21T07:43:44;7.80;91.40
83828;DHT22;73850;48.870;12.562;2023-11-21T07:46:11;7.80;91.10
83828;DHT22;73850;48.870;12.562;2023-11-21T07:48:39;7.90;91.00
83828;DHT22;73850;48.870;12.562;2023-11-21T07:51:05;7.90;91.20
83828;DHT22;73850;48.870;12.562;2023-11-21T07:53:32;7.90;90.70
83828;DHT22;73850;48.870;12.562;2023-11-21T07:55:58;8.00;90.90
83828;DHT22;73850;48.870;12.562;2023-11-21T07:58:27;8.10;91.30
83828;DHT22;73850;48.870;12.562;2023-11-21T08:00:53;8.20;91.90
83828;DHT22;73850;48.870;12.562;2023-11-21T08:03:19;8.30;91.10
83828;DHT22;73850;48.870;12.562;2023-11-21T08:05:45;8.30;89.70
83828;DHT22;73850;48.870;12.562;2023-11-21T08:08:10;8.30;89.20
83828;DHT22;73850;48.870;12.562;2023-11-21T08:10:36;8.30;89.20
83828;DHT22;73850;48.870;12.562;2023-11-21T08:13:03;8.30;88.20
83828;DHT22;73850;48.870;12.562;2023-11-21T08:15:29;8.20;88.80
83828;DHT22;73850;48.870;12.562;2023-11-21T08:17:57;8.30;88.90
83828;DHT22;73850;48.870;12.562;2023-11-21T08:20:24;8.30;89.10
83828;DHT22;73850;48.870;12.562;2023-11-21T08:22:50;8.40;88.70
83828;DHT22;73850;48.870;12.562;2023-11-21T08:25:17;8.40;88.20
83828;DHT22;73850;48.870;12.562;2023-11-21T08:27:45;8.50;87.70
83828;DHT22;73850;48.870;12.562;2023-11-21T08:30:11;8.40;87.60
83828;DHT22;73850;48.870;12.562;2023-11-21T08:32:39;8.50;87.80
83828;DHT22;73850;48.870;12.562;2023-11-21T08:35:07;8.50;87.50
83828;DHT22;73850;48.870;12.562;2023-11-21T08:37:32;8.70;87.80
83828;DHT22;73850;48.870;12.562;2023-11-21T08:40:01;8.50;86.70
83828;DHT22;73850;48.870;12.562;2023-11-21T08:42:28;8.50;88.00
83828;DHT22;73850;48.870;12.562;2023-11-21T08:44:56;8.70;88.20
83828;DHT22;73850;48.870;12.562;2023-11-21T08:47:23;8.80;86.30
83828;DHT22;73850;48.870;12.562;2023-11-21T08:49:50;8.90;85.60
83828;DHT22;73850;48.870;12.562;2023-11-21T08:52:19;9.00;85.20
83828;DHT22;73850;48.870;12.562;2023-11-21T08:54:48;8.90;84.90
83828;DHT22;73850;48.870;12.562;2023-11-21T08:57:15;9.00;84.90
83828;DHT22;73850;48.870;12.562;2023-11-21T08:59:41;9.00;84.40
83828;DHT22;73850;48.870;12.562;2023-11-21T09:02:07;9.10;84.30
83828;DHT22;73850;48.870;12.562;2023-11-21T09:04:33;9.20;83.70
83828;DHT22;73850;48.870;12.562;2023-11-21T09:06:59;9.30;83.70
83828;DHT22;73850;48.870;12.562;2023-11-21T09:09:25;9.40;81.60
83828;DHT22;73850;48.870;12.562;2023-11-21T09:11:51;9.30;82.50
83828;DHT22;73850;48.870;12.562;2023-11-21T09:14:16;9.20;82.00
83828;DHT22;73850;48.870;12.562;2023-11-21T09:16:43;9.20;82.80
83828;DHT22;73850;48.870;12.562;2023-11-21T09:19:09;9.30;83.40
83828;DHT22;73850;48.870;12.562;2023-11-21T09:21:34;9.40;82.50
83828;DHT22;73850;48.870;12.562;2023-11-21T09:24:00;9.50;81.90
83828;DHT22;73850;48.870;12.562;2023-11-21T09:26:25;9.50;81.70
83828;DHT22;73850;48.870;12.562;2023-11-21T09:28:51;9.50;82.00
83828;DHT22;73850;48.870;12.562;2023-11-21T09:31:18;9.50;81.60
83828;DHT22;73850;48.870;12.562;2023-11-21T09:33:45;9.60;80.80
83828;DHT22;73850;48.870;12.562;2023-11-21T09:36:13;9.40;80.80
83828;DHT22;73850;48.870;12.562;2023-11-21T09:38:40;9.50;82.20
83828;DHT22;73850;48.870;12.562;2023-11-21T09:41:40;9.60;82.10
83828;DHT22;73850;48.870;12.562;2023-11-21T09:44:09;9.60;81.00
83828;DHT22;73850;48.870;12.562;2023-11-21T09:46:40;9.70;80.70
83828;DHT22;73850;48.870;12.562;2023-11-21T09:49:09;9.60;81.00
83828;DHT22;73850;48.870;12.562;2023-11-21T09:51:39;9.50;81.30
83828;DHT22;73850;48.870;12.562;2023-11-21T09:54:08;9.40;80.40
83828;DHT22;73850;48.870;12.562;2023-11-21T09:56:37;9.20;80.80
83828;DHT22;73850;48.870;12.562;2023-11-21T09:59:03;9.30;81.60
83828;DHT22;73850;48.870;12.562;2023-11-21T10:01:33;9.50;81.70
83828;DHT22;73850;48.870;12.562;2023-11-21T10:03:59;9.50;82.10
83828;DHT22;73850;48.870;12.562;2023-11-21T10:06:26;9.50;82.60
83828;DHT22;73850;48.870;12.562;2023-11-21T10:08:53;9.50;83.20
83828;DHT22;73850;48.870;12.562;2023-11-21T10:11:25;9.60;83.60
83828;DHT22;73850;48.870;12.562;2023-11-21T10:13:57;9.60;83.90
83828;DHT22;73850;48.870;12.562;2023-11-21T10:16:26;9.60;83.60
83828;DHT22;73850;48.870;12.562;2023-11-21T10:18:53;9.60;83.50
83828;DHT22;73850;48.870;12.562;2023-11-21T10:21:21;9.70;83.20
83828;DHT22;73850;48.870;12.562;2023-11-21T10:23:47;9.70;82.80
83828;DHT22;73850;48.870;12.562;2023-11-21T10:26:13;9.70;83.00
83828;DHT22;73850;48.870;12.562;2023-11-21T10:29:02;9.80;80.80
83828;DHT22;73850;48.870;12.562;2023-11-21T10:31:32;9.90;80.50
83828;DHT22;73850;48.870;12.562;2023-11-21T10:34:16;9.80;81.00
83828;DHT22;73850;48.870;12.562;2023-11-21T10:36:41;9.70;81.50
83828;DHT22;73850;48.870;12.562;2023-11-21T10:39:07;9.70;82.20
83828;DHT22;73850;48.870;12.562;2023-11-21T10:41:33;9.70;82.00
83828;DHT22;73850;48.870;12.562;2023-11-21T10:44:01;9.70;82.40
83828;DHT22;73850;48.870;12.562;2023-11-21T10:46:29;9.70;82.50
83828;DHT22;73850;48.870;12.562;2023-11-21T10:48:56;9.60;82.50
83828;DHT22;73850;48.870;12.562;2023-11-21T10:51:22;9.60;80.30
83828;DHT22;73850;48.870;12.562;2023-11-21T10:53:52;9.80;80.40
83828;DHT22;73850;48.870;12.562;2023-11-21T10:56:18;9.80;78.60
83828;DHT22;73850;48.870;12.562;2023-11-21T10:58:50;9.90;78.90
83828;DHT22;73850;48.870;12.562;2023-11-21T11:01:19;10.00;78.50
83828;DHT22;73850;48.870;12.562;2023-11-21T11:03:50;9.90;77.80
83828;DHT22;73850;48.870;12.562;2023-11-21T11:06:16;9.90;78.30
83828;DHT22;73850;48.870;12.562;2023-11-21T11:08:43;10.10;78.40
83828;DHT22;73850;48.870;12.562;2023-11-21T11:11:09;10.20;78.90
83828;DHT22;73850;48.870;12.562;2023-11-21T11:13:35;10.30;78.10
83828;DHT22;73850;48.870;12.562;2023-11-21T11:16:04;10.60;78.40
83828;DHT22;73850;48.870;12.562;2023-11-21T11:18:33;11.10;75.60
83828;DHT22;73850;48.870;12.562;2023-11-21T11:21:15;11.00;74.30
83828;DHT22;73850;48.870;12.562;2023-11-21T11:26:57;10.70;75.50
83828;DHT22;73850;48.870;12.562;2023-11-21T11:34:47;10.20;78.30
83828;DHT22;73850;48.870;12.562;2023-11-21T11:37:15;10.20;79.20
83828;DHT22;73850;48.870;12.562;2023-11-21T11:39:42;10.10;78.30
83828;DHT22;73850;48.870;12.562;2023-11-21T11:42:14;10.20;78.20
83828;DHT22;73850;48.870;12.562;2023-11-21T11:50:00;10.30;77.10
83828;DHT22;73850;48.870;12.562;2023-11-21T11:52:39;10.30;77.60
83828;DHT22;73850;48.870;12.562;2023-11-21T11:55:10;10.30;79.20
83828;DHT22;73850;48.870;12.562;2023-11-21T11:57:36;10.30;78.20
83828;DHT22;73850;48.870;12.562;2023-11-21T12:00:16;10.50;80.30
83828;DHT22;73850;48.870;12.562;2023-11-21T12:02:45;10.60;79.30
83828;DHT22;73850;48.870;12.562;2023-11-21T12:05:12;10.80;76.00
83828;DHT22;73850;48.870;12.562;2023-11-21T12:07:52;10.80;76.00
83828;DHT22;73850;48.870;12.562;2023-11-21T12:10:27;10.60;74.20
83828;DHT22;73850;48.870;12.562;2023-11-21T12:13:19;10.60;75.40
83828;DHT22;73850;48.870;12.562;2023-11-21T12:15:45;10.70;74.90
83828;DHT22;73850;48.870;12.562;2023-11-21T12:18:11;10.70;74.00
83828;DHT22;73850;48.870;12.562;2023-11-21T12:20:36;10.60;74.00
83828;DHT22;73850;48.870;12.562;2023-11-21T12:23:05;10.50;74.60
83828;DHT22;73850;48.870;12.562;2023-11-21T12:25:31;10.50;75.20
83828;DHT22;73850;48.870;12.562;2023-11-21T12:27:59;10.60;75.70
83828;DHT22;73850;48.870;12.562;2023-11-21T12:30:30;10.60;75.00
83828;DHT22;73850;48.870;12.562;2023-11-21T12:33:01;10.60;74.70
83828;DHT22;73850;48.870;12.562;2023-11-21T12:35:29;10.60;74.70
83828;DHT22;73850;48.870;12.562;2023-11-21T12:37:55;10.50;75.10
83828;DHT22;73850;48.870;12.562;2023-11-21T12:40:24;10.50;75.20
83828;DHT22;73850;48.870;12.562;2023-11-21T12:42:55;10.60;74.10
83828;DHT22;73850;48.870;12.562;2023-11-21T12:45:22;10.60;73.70
83828;DHT22;73850;48.870;12.562;2023-11-21T12:47:49;10.60;74.00
83828;DHT22;73850;48.870;12.562;2023-11-21T12:50:22;10.50;74.40
83828;DHT22;73850;48.870;12.562;2023-11-21T12:52:50;10.60;74.30
83828;DHT22;73850;48.870;12.562;2023-11-21T12:55:17;10.60;74.50
83828;DHT22;73850;48.870;12.562;2023-11-21T12:57:44;10.60;73.30
83828;DHT22;73850;48.870;12.562;2023-11-21T13:00:11;10.60;73.90
83828;DHT22;73850;48.870;12.562;2023-11-21T13:02:51;10.50;74.70
83828;DHT22;73850;48.870;12.562;2023-11-21T13:05:39;10.50;75.20
83828;DHT22;73850;48.870;12.562;2023-11-21T13:08:07;10.40;75.00
83828;DHT22;73850;48.870;12.562;2023-11-21T13:10:35;10.30;75.70
83828;DHT22;73850;48.870;12.562;2023-11-21T13:13:06;10.20;76.20
83828;DHT22;73850;48.870;12.562;2023-11-21T13:15:34;10.10;76.60
83828;DHT22;73850;48.870;12.562;2023-11-21T13:18:02;10.00;76.40
83828;DHT22;73850;48.870;12.562;2023-11-21T13:20:29;10.00;76.90
83828;DHT22;73850;48.870;12.562;2023-11-21T13:22:56;9.90;77.30
83828;DHT22;73850;48.870;12.562;2023-11-21T13:25:27;9.90;77.20
83828;DHT22;73850;48.870;12.562;2023-11-21T13:27:57;9.80;78.10
83828;DHT22;73850;48.870;12.562;2023-11-21T13:30:24;9.80;78.10
83828;DHT22;73850;48.870;12.562;2023-11-21T13:32:54;9.80;78.40
83828;DHT22;73850;48.870;12.562;2023-11-21T13:35:28;9.90;78.60
83828;DHT22;73850;48.870;12.562;2023-11-21T13:38:04;9.90;78.60
83828;DHT22;73850;48.870;12.562;2023-11-21T13:40:32;9.80;80.70
83828;DHT22;73850;48.870;12.562;2023-11-21T13:43:00;9.80;79.20
83828;DHT22;73850;48.870;12.562;2023-11-21T13:45:29;9.80;79.00
83828;DHT22;73850;48.870;12.562;2023-11-21T13:47:56;9.80;79.20
83828;DHT22;73850;48.870;12.562;2023-11-21T13:50:26;9.70;79.50
83828;DHT22;73850;48.870;12.562;2023-11-21T13:52:58;9.70;79.70
83828;DHT22;73850;48.870;12.562;2023-11-21T13:55:27;9.70;79.50
83828;DHT22;73850;48.870;12.562;2023-11-21T13:57:52;9.70;79.60
83828;DHT22;73850;48.870;12.562;2023-11-21T14:00:19;9.70;79.90
83828;DHT22;73850;48.870;12.562;2023-11-21T14:03:17;9.70;80.80
83828;DHT22;73850;48.870;12.562;2023-11-21T14:05:58;9.70;80.50
83828;DHT22;73850;48.870;12.562;2023-11-21T14:08:26;9.70;80.80
83828;DHT22;73850;48.870;12.562;2023-11-21T14:10:54;9.60;81.10
83828;DHT22;73850;48.870;12.562;2023-11-21T14:13:26;9.60;80.90
83828;DHT22;73850;48.870;12.562;2023-11-21T14:15:53;9.50;81.50
83828;DHT22;73850;48.870;12.562;2023-11-21T14:18:26;9.50;81.60
83828;DHT22;73850;48.870;12.562;2023-11-21T14:21:16;9.50;81.80
83828;DHT22;73850;48.870;12.562;2023-11-21T14:23:42;9.50;82.00
83828;DHT22;73850;48.870;12.562;2023-11-21T14:26:08;9.50;82.00
83828;DHT22;73850;48.870;12.562;2023-11-21T14:28:34;9.50;82.00
83828;DHT22;73850;48.870;12.562;2023-11-21T14:31:02;9.50;82.70
83828;DHT22;73850;48.870;12.562;2023-11-21T14:33:28;9.40;82.40
83828;DHT22;73850;48.870;12.562;2023-11-21T14:35:54;9.40;82.40
83828;DHT22;73850;48.870;12.562;2023-11-21T14:38:20;9.40;82.30
83828;DHT22;73850;48.870;12.562;2023-11-21T14:40:45;9.40;82.50
83828;DHT22;73850;48.870;12.562;2023-11-21T14:43:12;9.40;82.80
83828;DHT22;73850;48.870;12.562;2023-11-21T14:45:38;9.40;82.70
83828;DHT22;73850;48.870;12.562;2023-11-21T14:48:04;9.40;82.40
83828;DHT22;73850;48.870;12.562;2023-11-21T14:50:30;9.40;82.50
83828;DHT22;73850;48.870;12.562;2023-11-21T14:53:01;9.30;82.70
83828;DHT22;73850;48.870;12.562;2023-11-21T14:55:31;9.30;82.70
83828;DHT22;73850;48.870;12.562;2023-11-21T14:57:58;9.30;83.00
83828;DHT22;73850;48.870;12.562;2023-11-21T15:00:27;9.20;83.30
83828;DHT22;73850;48.870;12.562;2023-11-21T15:02:59;9.20;83.10
83828;DHT22;73850;48.870;12.562;2023-11-21T15:05:26;9.20;83.50
83828;DHT22;73850;48.870;12.562;2023-11-21T15:07:53;9.10;83.60
83828;DHT22;73850;48.870;12.562;2023-11-21T15:10:33;9.10;84.00
83828;DHT22;73850;48.870;12.562;2023-11-21T15:13:14;9.00;84.40
83828;DHT22;73850;48.870;12.562;2023-11-21T15:15:41;9.00;84.90
83828;DHT22;73850;48.870;12.562;2023-11-21T15:18:07;8.90;85.20
83828;DHT22;73850;48.870;12.562;2023-11-21T15:20:33;8.90;85.60
83828;DHT22;73850;48.870;12.562;2023-11-21T15:22:59;8.90;85.80
83828;DHT22;73850;48.870;12.562;2023-11-21T15:25:25;8.80;86.00
83828;DHT22;73850;48.870;12.562;2023-11-21T15:27:51;8.80;86.30
83828;DHT22;73850;48.870;12.562;2023-11-21T15:30:17;8.80;86.60
83828;DHT22;73850;48.870;12.562;2023-11-21T15:32:50;8.80;86.90
83828;DHT22;73850;48.870;12.562;2023-11-21T15:35:16;8.70;87.00
83828;DHT22;73850;48.870;12.562;2023-11-21T15:37:41;8.70;86.90
83828;DHT22;73850;48.870;12.562;2023-11-21T15:40:09;8.70;87.10
83828;DHT22;73850;48.870;12.562;2023-11-21T15:42:35;8.70;87.10
83828;DHT22;73850;48.870;12.562;2023-11-21T15:45:03;8.70;87.10
83828;DHT22;73850;48.870;12.562;2023-11-21T15:47:32;8.60;87.20